createdAt,value
2022-09-28T00:01:12.802Z,16.87
2022-09-28T00:06:19.873Z,19.61
2022-09-28T00:11:28.393Z,19.84
2022-09-28T00:16:38.324Z,17.75
2022-09-28T00:21:41.951Z,16.47
2022-09-28T00:26:56.448Z,17.08
2022-09-28T00:32:03.110Z,19.74
2022-09-28T00:37:08.932Z,19.85
2022-09-28T00:42:19.043Z,17.78
2022-09-28T00:47:33.118Z,16.48
2022-09-28T00:52:41.391Z,17.21
2022-09-28T00:57:53.176Z,19.79
2022-09-28T01:02:56.340Z,20.71
2022-09-28T01:07:58.992Z,19.17
2022-09-28T01:13:01.734Z,17.35
2022-09-28T01:18:17.744Z,17.61
2022-09-28T01:23:58.316Z,19.78
2022-09-28T01:29:42.077Z,17.93
2022-09-28T01:35:20.018Z,16.20
2022-09-28T01:40:26.085Z,17.06
2022-09-28T01:45:57.881Z,19.47
2022-09-28T01:51:05.337Z,18.11
2022-09-28T01:56:16.961Z,16.32
2022-09-28T02:01:43.759Z,16.77
2022-09-28T02:06:56.836Z,19.33
2022-09-28T02:12:05.771Z,19.18
2022-09-28T02:17:10.276Z,17.01
2022-09-28T02:22:23.568Z,16.85
2022-09-28T02:27:36.473Z,18.66
2022-09-28T02:32:45.179Z,16.65
2022-09-28T02:37:49.860Z,17.57
2022-09-28T02:43:22.369Z,18.26
2022-09-28T02:48:41.553Z,16.08
2022-09-28T02:54:01.534Z,17.44
2022-09-28T02:59:20.425Z,18.77
2022-09-28T03:04:35.799Z,16.92
2022-09-28T03:10:01.898Z,15.71
2022-09-28T03:15:12.930Z,17.98
2022-09-28T03:20:15.941Z,18.09
2022-09-28T03:25:18.782Z,15.89
2022-09-28T03:30:22.561Z,15.92
2022-09-28T03:35:25.324Z,18.17
2022-09-28T03:40:28.010Z,18.15
2022-09-28T03:45:30.721Z,15.97
2022-09-28T03:50:33.441Z,14.66
2022-09-28T03:55:36.135Z,16.10
2022-09-28T04:00:39.185Z,18.25
2022-09-28T04:05:52.330Z,17.62
2022-09-28T04:10:59.204Z,15.60
2022-09-28T04:16:02.408Z,15.93
2022-09-28T04:21:07.835Z,18.27
2022-09-28T04:26:18.151Z,18.26
2022-09-28T04:31:23.786Z,16.07
2022-09-28T04:36:26.486Z,16.12
2022-09-28T04:41:29.691Z,18.55
2022-09-28T04:46:32.345Z,18.29
2022-09-28T04:51:35.033Z,16.23
2022-09-28T04:56:37.708Z,15.02
2022-09-28T05:01:40.513Z,15.61
2022-09-28T05:06:43.224Z,18.26
2022-09-28T05:11:45.935Z,18.37
2022-09-28T05:16:54.967Z,16.30
2022-09-28T05:22:04.111Z,16.35
2022-09-28T05:27:06.884Z,18.79
2022-09-28T05:32:09.797Z,18.26
2022-09-28T05:37:12.478Z,16.28
2022-09-28T05:42:15.183Z,16.50
2022-09-28T05:47:17.864Z,18.92
2022-09-28T05:52:20.558Z,17.80
2022-09-28T05:57:23.251Z,16.04
2022-09-28T06:02:26.381Z,16.39
2022-09-28T06:07:29.099Z,18.92
2022-09-28T06:12:34.142Z,18.15
2022-09-28T06:17:46.255Z,16.31
2022-09-28T06:23:01.015Z,16.52
2022-09-28T06:34:30.560Z,17.57
2022-09-28T06:39:51.255Z,15.69
2022-09-28T06:45:02.307Z,16.19
2022-09-28T06:56:02.537Z,17.52
2022-09-28T07:01:20.233Z,15.77
2022-09-28T07:06:24.419Z,16.25
2022-09-28T07:11:30.555Z,18.85
2022-09-28T07:16:58.429Z,18.17
2022-09-28T07:22:05.203Z,16.22
2022-09-28T07:27:11.821Z,15.09
2022-09-28T07:32:18.648Z,15.80
2022-09-28T07:37:31.999Z,18.52
2022-09-28T07:42:42.192Z,17.84
2022-09-28T07:47:56.561Z,15.95
2022-09-28T07:53:03.961Z,16.30
2022-09-28T07:58:07.943Z,18.62
2022-09-28T08:03:10.777Z,18.37
2022-09-28T08:08:18.864Z,16.32
2022-09-28T08:13:26.186Z,17.28
2022-09-28T08:18:43.926Z,16.93
2022-09-28T08:23:54.647Z,16.20
2022-09-28T08:28:59.430Z,17.33
2022-09-28T08:34:03.142Z,16.30
2022-09-28T08:39:11.375Z,18.37
2022-09-28T08:44:25.305Z,18.43
2022-09-28T08:49:48.440Z,16.32
2022-09-28T08:55:11.298Z,17.06
2022-09-28T09:00:49.307Z,18.89
2022-09-28T09:06:38.690Z,16.70
2022-09-28T09:11:57.721Z,16.94
2022-09-28T09:17:41.653Z,18.03
2022-09-28T09:23:00.481Z,16.53
2022-09-28T09:28:09.084Z,18.63
2022-09-28T09:33:52.638Z,17.79
2022-09-28T09:39:07.413Z,16.79
2022-09-28T09:44:33.776Z,19.07
2022-09-28T09:50:06.814Z,17.53
2022-09-28T09:55:29.658Z,17.20
2022-09-28T10:00:42.927Z,19.06
2022-09-28T10:05:54.693Z,17.43
2022-09-28T10:11:25.945Z,16.89
2022-09-28T10:16:33.085Z,19.18
2022-09-28T10:21:41.152Z,17.78
2022-09-28T10:26:50.383Z,16.43
2022-09-28T10:31:56.075Z,18.20
2022-09-28T10:37:06.758Z,18.84
2022-09-28T10:42:12.487Z,17.19
2022-09-28T10:47:19.799Z,16.11
2022-09-28T10:52:42.222Z,16.76
2022-09-28T10:57:44.959Z,17.96
2022-09-28T11:03:21.577Z,16.74
2022-09-28T11:08:40.100Z,16.94
2022-09-28T11:14:07.099Z,17.56
2022-09-28T11:19:22.897Z,16.88
2022-09-28T11:24:34.777Z,15.77
2022-09-28T11:29:46.576Z,15.05
2022-09-28T11:35:00.157Z,16.78
2022-09-28T11:40:29.697Z,15.92
2022-09-28T11:45:43.969Z,15.28
2022-09-28T11:50:54.540Z,18.51
2022-09-28T11:56:11.903Z,20.68
2022-09-28T12:01:31.697Z,22.41
2022-09-28T12:07:21.698Z,23.75
2022-09-28T12:12:49.363Z,25.00
2022-09-28T12:18:01.431Z,25.44
2022-09-28T12:23:11.468Z,24.83
2022-09-28T12:28:28.428Z,23.54
2022-09-28T12:33:32.829Z,21.79
2022-09-28T12:39:14.782Z,20.39
2022-09-28T12:44:20.186Z,19.08
2022-09-28T12:55:13.047Z,17.52
2022-09-28T13:00:32.621Z,17.15
2022-09-28T13:06:14.778Z,16.82
2022-09-28T13:11:47.351Z,16.45
2022-09-28T13:16:56.163Z,16.14
2022-09-28T13:22:21.760Z,15.94
2022-09-28T13:27:36.302Z,15.84
2022-09-28T13:32:39.910Z,15.86
2022-09-28T13:37:43.290Z,15.80
2022-09-28T13:42:46.244Z,15.70
2022-09-28T13:47:54.561Z,15.57
2022-09-28T13:53:22.204Z,15.49
2022-09-28T13:58:42.670Z,15.55
2022-09-28T14:04:11.789Z,15.49
2022-09-28T14:09:17.008Z,15.45
2022-09-28T14:14:54.365Z,15.40
2022-09-28T14:20:15.328Z,15.32
2022-09-28T14:25:25.103Z,15.17
2022-09-28T14:30:43.750Z,15.00
2022-09-28T14:36:04.858Z,14.96
2022-09-28T14:41:17.885Z,15.09
2022-09-28T14:46:21.003Z,15.24
2022-09-28T14:51:26.460Z,15.31
2022-09-28T14:56:33.313Z,15.27
2022-09-28T15:01:36.534Z,15.34
2022-09-28T15:06:50.154Z,15.58
2022-09-28T15:11:55.582Z,17.47
2022-09-28T15:17:02.972Z,19.75
2022-09-28T15:22:17.522Z,19.81
2022-09-28T15:27:20.257Z,19.66
2022-09-28T15:32:28.611Z,19.26
2022-09-28T15:37:40.314Z,18.43
2022-09-28T15:42:45.385Z,17.76
2022-09-28T15:47:48.571Z,17.11
2022-09-28T15:52:55.197Z,16.52
2022-09-28T15:58:21.226Z,16.04
2022-09-28T16:03:28.208Z,15.62
2022-09-28T16:08:33.073Z,15.30
2022-09-28T16:13:37.023Z,15.08
2022-09-28T16:18:40.502Z,14.87
2022-09-28T16:23:55.907Z,14.66
2022-09-28T16:28:59.067Z,14.47
2022-09-28T16:34:27.438Z,14.28
2022-09-28T16:39:30.126Z,14.08
2022-09-28T16:44:35.015Z,15.35
2022-09-28T16:49:39.906Z,18.62
2022-09-28T16:55:01.279Z,18.58
2022-09-28T17:00:04.272Z,16.87
2022-09-28T17:05:07.501Z,15.99
2022-09-28T17:11:12.905Z,15.35
2022-09-28T17:21:43.746Z,14.20
2022-09-28T17:26:49.259Z,13.90
2022-09-28T17:31:52.161Z,15.04
2022-09-28T17:36:56.098Z,18.24
2022-09-28T17:41:58.811Z,18.11
2022-09-28T17:47:02.111Z,16.31
2022-09-28T17:52:05.705Z,15.36
2022-09-28T17:57:10.342Z,14.74
2022-09-28T18:02:12.990Z,14.20
2022-09-28T18:07:15.893Z,13.73
2022-09-28T18:12:18.610Z,14.69
2022-09-28T18:17:22.226Z,17.66
2022-09-28T18:22:24.900Z,17.93
2022-09-28T18:27:30.390Z,16.04
2022-09-28T18:32:37.763Z,14.88
2022-09-28T18:37:40.941Z,14.18
2022-09-28T18:42:43.805Z,13.73
2022-09-28T18:47:47.037Z,13.31
2022-09-28T18:52:49.745Z,14.42
2022-09-28T18:57:52.950Z,17.48
2022-09-28T19:02:55.743Z,17.77
2022-09-28T19:07:58.463Z,15.83
2022-09-28T19:13:01.226Z,14.67
2022-09-28T19:18:04.387Z,13.94
2022-09-28T19:23:07.176Z,13.41
2022-09-28T19:28:09.864Z,14.38
2022-09-28T19:33:12.636Z,17.44
2022-09-28T19:38:15.311Z,17.36
2022-09-28T19:43:19.937Z,15.48
2022-09-28T19:48:27.301Z,14.40
2022-09-28T19:53:32.618Z,13.72
2022-09-28T19:58:36.851Z,13.17
2022-09-28T20:03:39.646Z,14.24
2022-09-28T20:08:44.790Z,17.24
2022-09-28T20:13:49.167Z,17.37
2022-09-28T20:18:56.062Z,15.25
2022-09-28T20:23:59.088Z,13.94
2022-09-28T20:29:01.811Z,15.40
2022-09-28T20:34:06.254Z,14.97
2022-09-28T20:39:10.781Z,13.45
2022-09-28T20:44:13.465Z,14.02
2022-09-28T20:49:16.126Z,16.64
2022-09-28T20:54:21.821Z,16.88
2022-09-28T20:59:27.086Z,14.82
2022-09-28T21:04:29.752Z,13.58
2022-09-28T21:09:32.570Z,13.86
2022-09-28T21:14:35.247Z,16.80
2022-09-28T21:19:37.921Z,17.15
2022-09-28T21:24:40.567Z,15.26
2022-09-28T21:29:43.238Z,14.16
2022-09-28T21:34:45.942Z,14.82
2022-09-28T21:39:48.602Z,17.60
2022-09-28T21:44:51.272Z,17.02
2022-09-28T21:49:53.912Z,15.11
2022-09-28T21:54:56.619Z,14.02
2022-09-28T21:59:59.307Z,14.61
2022-09-28T22:05:01.996Z,17.43
2022-09-28T22:10:07.070Z,16.87
2022-09-28T22:15:10.350Z,15.02
2022-09-28T22:20:13.523Z,13.84
2022-09-28T22:25:16.731Z,14.41
2022-09-28T22:30:19.410Z,17.18
2022-09-28T22:35:22.083Z,16.88
2022-09-28T22:40:25.537Z,14.88
2022-09-28T22:45:28.419Z,13.71
2022-09-28T22:50:31.665Z,14.30
2022-09-28T22:55:34.331Z,17.09
2022-09-28T23:00:37.459Z,17.26
2022-09-28T23:05:40.141Z,15.16
2022-09-28T23:10:42.834Z,13.84
2022-09-28T23:16:00.114Z,14.34
2022-09-28T23:21:06.068Z,17.23
2022-09-28T23:26:17.837Z,16.76
2022-09-28T23:31:23.892Z,14.74
2022-09-28T23:36:27.562Z,13.60
2022-09-28T23:41:30.499Z,14.36
2022-09-28T23:46:34.217Z,17.17
2022-09-28T23:51:36.910Z,17.24
2022-09-28T23:56:39.577Z,15.11
